Time;durP1;ratioP1;P1;durP2;ratioP2;P2;SDS_P1;SDS_P2;PMS_P1;PMS_P2;Temp;Humidity;BMP_temperature;BMP_pressure;BME280_temperature;BME280_humidity;BME280_pressure;Samples;Min_cycle;Max_cycle;Signal;HPM_P1;HPM_P2
2022/03/15 00:01:58;;;;;;;80.00;34.87;;;3.50;60.70;;;;;;10243875;29;20475;-85
2022/03/15 00:06:59;;;;;;;98.17;41.97;;;3.50;60.60;;;;;;10248761;29;20042;-83
2022/03/15 00:12:02;;;;;;;92.07;41.73;;;3.50;61.20;;;;;;10251396;29;20023;-83
2022/03/15 00:17:05;;;;;;;79.70;35.40;;;3.40;60.90;;;;;;10248401;29;20534;-84
2022/03/15 00:22:06;;;;;;;80.80;36.57;;;3.30;61.10;;;;;;10243592;29;20519;-84
2022/03/15 00:27:10;;;;;;;80.27;36.80;;;3.30;61.50;;;;;;10241205;29;20015;-84
2022/03/15 00:32:13;;;;;;;83.20;38.03;;;3.20;61.70;;;;;;10231930;29;20671;-83
2022/03/15 00:37:14;;;;;;;119.23;54.57;;;3.10;61.80;;;;;;10248646;29;20076;-83
2022/03/15 00:42:15;;;;;;;132.73;56.77;;;3.20;62.40;;;;;;10249824;28;20027;-83
2022/03/15 00:47:16;;;;;;;100.87;43.87;;;3.10;62.50;;;;;;10249156;29;20042;-84
2022/03/15 00:52:16;;;;;;;86.73;39.37;;;3.10;62.60;;;;;;10250208;29;20027;-84
2022/03/15 00:57:18;;;;;;;96.97;40.30;;;3.10;63.40;;;;;;10242052;29;20051;-83
2022/03/15 01:02:18;;;;;;;85.03;36.57;;;3.10;63.50;;;;;;10247706;29;20114;-83
2022/03/15 01:07:19;;;;;;;87.77;37.67;;;3.00;63.30;;;;;;10249746;29;20552;-84
2022/03/15 01:12:20;;;;;;;91.13;40.47;;;3.00;63.60;;;;;;10247946;29;20039;-84
2022/03/15 01:17:20;;;;;;;81.17;36.50;;;3.10;63.60;;;;;;10246993;29;20093;-82
2022/03/15 01:22:21;;;;;;;72.47;32.67;;;3.00;63.60;;;;;;10249428;29;20060;-84
2022/03/15 01:27:22;;;;;;;68.23;30.13;;;2.90;63.30;;;;;;10239481;29;20150;-84
2022/03/15 01:32:23;;;;;;;71.87;32.23;;;2.90;63.30;;;;;;10232105;29;20122;-84
2022/03/15 01:37:23;;;;;;;72.57;32.13;;;2.80;63.20;;;;;;10248113;29;20070;-83
2022/03/15 01:42:24;;;;;;;79.43;35.03;;;2.80;63.30;;;;;;10227614;29;20039;-83
2022/03/15 01:47:25;;;;;;;121.90;53.03;;;2.80;63.60;;;;;;10242220;29;20035;-84
2022/03/15 01:52:25;;;;;;;143.97;59.60;;;2.70;63.90;;;;;;10247025;29;20106;-83
2022/03/15 01:57:26;;;;;;;184.57;75.13;;;2.80;64.60;;;;;;10239698;28;20039;-84
2022/03/15 02:02:27;;;;;;;154.30;66.00;;;2.90;65.50;;;;;;10229783;29;20035;-84
2022/03/15 02:07:28;;;;;;;123.97;54.63;;;3.10;65.40;;;;;;10224698;29;20031;-83
2022/03/15 02:12:28;;;;;;;126.17;56.80;;;3.40;65.00;;;;;;10246328;29;20028;-83
2022/03/15 02:17:30;;;;;;;145.23;61.37;;;3.60;64.00;;;;;;10243146;29;20050;-83
2022/03/15 02:22:31;;;;;;;161.10;68.40;;;3.60;64.00;;;;;;10244792;29;20499;-83
2022/03/15 02:27:31;;;;;;;124.20;55.50;;;3.60;63.60;;;;;;10241099;29;20038;-83
2022/03/15 02:32:34;;;;;;;136.77;58.77;;;3.60;64.20;;;;;;10246310;29;20046;-84
2022/03/15 02:37:34;;;;;;;114.83;52.13;;;3.30;64.60;;;;;;10242812;29;20051;-83
2022/03/15 02:42:35;;;;;;;101.40;42.63;;;3.10;65.50;;;;;;10243414;29;20087;-83
2022/03/15 02:47:37;;;;;;;87.00;38.20;;;2.80;65.30;;;;;;10245706;29;20035;-83
2022/03/15 02:52:38;;;;;;;151.03;62.00;;;2.80;66.90;;;;;;10242925;29;20031;-83
2022/03/15 02:57:39;;;;;;;115.90;48.67;;;2.60;66.70;;;;;;10227821;29;20415;-84
2022/03/15 03:02:40;;;;;;;106.97;43.83;;;2.40;66.60;;;;;;10231839;29;20389;-83
2022/03/15 03:07:41;;;;;;;118.53;48.40;;;2.30;67.20;;;;;;10230803;29;20035;-83
2022/03/15 03:12:43;;;;;;;120.87;45.47;;;2.40;67.40;;;;;;10243562;29;20039;-83
2022/03/15 03:17:44;;;;;;;116.53;44.23;;;2.20;67.60;;;;;;10243792;29;20122;-82
2022/03/15 03:22:46;;;;;;;111.70;47.03;;;2.10;67.10;;;;;;10242844;29;20472;-82
2022/03/15 03:27:47;;;;;;;94.47;40.53;;;2.00;67.20;;;;;;10240973;29;20038;-83
2022/03/15 03:32:48;;;;;;;91.63;37.67;;;2.00;68.30;;;;;;10251157;29;20431;-83
2022/03/15 03:37:48;;;;;;;112.70;45.33;;;1.90;67.90;;;;;;10253250;29;20039;-84
2022/03/15 03:42:49;;;;;;;94.73;42.03;;;1.80;68.70;;;;;;10227024;29;20392;-84
2022/03/15 03:47:51;;;;;;;102.20;44.33;;;1.70;68.90;;;;;;10234206;29;20038;-83
2022/03/15 03:52:52;;;;;;;105.77;44.93;;;1.70;68.70;;;;;;10234295;29;20038;-83
2022/03/15 03:57:53;;;;;;;100.67;41.23;;;1.70;68.70;;;;;;10251480;29;20047;-82
2022/03/15 04:02:57;;;;;;;95.87;41.37;;;1.60;69.00;;;;;;10245736;29;20039;-83
2022/03/15 04:07:59;;;;;;;89.27;40.80;;;1.50;69.10;;;;;;10252040;29;20075;-82
2022/03/15 04:13:00;;;;;;;83.87;37.87;;;1.50;69.30;;;;;;10250088;29;20431;-81
2022/03/15 04:18:01;;;;;;;77.87;34.13;;;1.50;69.00;;;;;;10249852;28;20032;-85
2022/03/15 04:23:02;;;;;;;84.20;37.43;;;1.50;69.50;;;;;;10250231;29;20444;-84
2022/03/15 04:28:03;;;;;;;66.80;29.90;;;1.50;69.70;;;;;;10233186;29;20032;-83
2022/03/15 04:33:04;;;;;;;54.50;25.60;;;1.50;70.50;;;;;;10243529;29;20403;-84
2022/03/15 04:38:05;;;;;;;52.73;24.57;;;1.50;70.60;;;;;;10245592;29;20038;-84
2022/03/15 04:43:06;;;;;;;45.67;20.47;;;1.60;70.90;;;;;;10231463;29;20042;-83
2022/03/15 04:48:07;;;;;;;45.03;20.37;;;1.70;70.10;;;;;;10245750;29;20066;-83
2022/03/15 04:53:07;;;;;;;47.03;20.87;;;1.70;69.60;;;;;;10249892;29;20071;-83
2022/03/15 04:58:08;;;;;;;45.63;20.80;;;1.80;69.70;;;;;;10216023;29;20427;-84
2022/03/15 05:03:09;;;;;;;47.50;23.83;;;1.80;69.50;;;;;;10235260;29;20040;-83
2022/03/15 05:08:10;;;;;;;48.30;22.90;;;1.90;69.30;;;;;;10248699;28;20476;-84
2022/03/15 05:13:13;;;;;;;73.47;30.50;;;2.00;69.10;;;;;;10248095;29;20067;-82
2022/03/15 05:18:14;;;;;;;226.47;91.13;;;2.10;69.50;;;;;;10247972;29;20335;-84
2022/03/15 05:23:15;;;;;;;162.47;66.80;;;2.10;70.00;;;;;;10247265;29;20871;-83
2022/03/15 05:28:16;;;;;;;153.37;60.33;;;2.00;71.00;;;;;;10242469;28;20035;-84
2022/03/15 05:33:17;;;;;;;189.13;74.40;;;1.80;70.30;;;;;;10222026;29;20058;-83
2022/03/15 05:38:18;;;;;;;245.00;101.37;;;1.70;71.10;;;;;;10208576;29;20048;-84
2022/03/15 05:43:19;;;;;;;331.80;129.83;;;1.70;70.80;;;;;;10219633;29;20031;-84
2022/03/15 05:48:20;;;;;;;299.70;116.83;;;1.70;71.20;;;;;;10208315;29;20027;-84
2022/03/15 05:53:20;;;;;;;237.27;97.27;;;1.80;71.60;;;;;;10202429;29;20030;-83
2022/03/15 05:58:21;;;;;;;154.83;63.33;;;1.80;71.00;;;;;;10208930;29;20524;-85
2022/03/15 06:03:22;;;;;;;97.60;44.43;;;2.00;70.70;;;;;;10207911;29;20024;-83
2022/03/15 06:08:23;;;;;;;88.67;41.97;;;2.20;70.50;;;;;;10207984;29;20039;-83
2022/03/15 06:13:24;;;;;;;96.80;42.87;;;2.50;70.10;;;;;;10207620;29;20031;-84
2022/03/15 06:18:24;;;;;;;113.73;52.63;;;2.70;69.90;;;;;;10208020;29;20042;-84
2022/03/15 06:23:25;;;;;;;85.03;38.43;;;3.00;69.90;;;;;;10207739;29;20473;-84
2022/03/15 06:28:26;;;;;;;91.37;39.77;;;3.40;69.50;;;;;;10190585;29;20095;-84
2022/03/15 06:33:27;;;;;;;68.77;31.43;;;3.70;69.00;;;;;;10207622;29;20054;-84
2022/03/15 06:38:28;;;;;;;106.43;42.17;;;4.10;68.50;;;;;;10207353;29;20047;-84
2022/03/15 06:43:29;;;;;;;101.53;42.13;;;4.20;68.00;;;;;;10215188;29;20056;-83
2022/03/15 06:48:30;;;;;;;68.57;31.60;;;4.50;67.50;;;;;;10215493;29;20151;-84
2022/03/15 06:53:31;;;;;;;81.97;37.93;;;4.70;67.10;;;;;;10215032;29;20038;-83
2022/03/15 06:58:31;;;;;;;159.00;73.30;;;4.80;66.70;;;;;;10210440;29;20047;-83
2022/03/15 07:03:33;;;;;;;91.33;42.03;;;5.00;67.60;;;;;;10235801;29;20550;-84
2022/03/15 07:08:34;;;;;;;72.00;36.90;;;5.20;67.60;;;;;;10214772;29;20046;-84
2022/03/15 07:13:35;;;;;;;68.20;35.33;;;5.30;68.30;;;;;;10230508;29;20050;-84
2022/03/15 07:18:36;;;;;;;65.23;30.83;;;5.60;68.70;;;;;;10232391;29;20379;-84
2022/03/15 07:23:36;;;;;;;63.27;29.00;;;5.90;68.60;;;;;;10240928;29;20114;-85
2022/03/15 07:28:37;;;;;;;65.17;30.43;;;6.20;67.90;;;;;;10229179;29;20114;-84
2022/03/15 07:33:39;;;;;;;44.37;22.87;;;6.60;67.40;;;;;;10221453;29;20074;-85
2022/03/15 07:38:39;;;;;;;45.83;24.20;;;6.90;66.40;;;;;;10229128;29;20102;-84
2022/03/15 07:43:40;;;;;;;31.93;17.27;;;7.40;65.50;;;;;;10252302;29;20110;-84
2022/03/15 07:48:41;;;;;;;34.43;18.13;;;7.80;64.80;;;;;;10246917;29;20031;-84
2022/03/15 07:53:41;;;;;;;36.33;18.00;;;8.10;63.20;;;;;;10249781;28;20098;-82
2022/03/15 07:58:42;;;;;;;27.93;15.67;;;8.40;62.70;;;;;;10252458;29;20047;-83
2022/03/15 08:03:43;;;;;;;33.57;16.40;;;8.70;62.50;;;;;;10252568;29;20082;-83
2022/03/15 08:08:43;;;;;;;28.17;14.30;;;9.00;61.80;;;;;;10251924;29;20035;-83
2022/03/15 08:13:44;;;;;;;32.50;15.53;;;9.20;61.40;;;;;;10241496;29;20151;-84
2022/03/15 08:18:52;;;;;;;26.10;13.67;;;9.40;61.40;;;;;;10237059;29;20035;-83
2022/03/15 08:23:53;;;;;;;24.33;12.17;;;9.80;62.10;;;;;;10240559;29;20365;-82
2022/03/15 08:28:54;;;;;;;37.20;17.80;;;10.10;61.30;;;;;;10250069;29;20038;-82
2022/03/15 08:33:55;;;;;;;34.53;17.97;;;10.50;62.10;;;;;;10241485;29;20142;-83
2022/03/15 08:38:56;;;;;;;28.37;13.70;;;10.80;61.90;;;;;;10249680;29;20039;-82
2022/03/15 08:43:57;;;;;;;26.45;12.98;;;11.00;62.10;;;;;;10246342;29;20399;-82
2022/03/15 08:49:43;;;;;;;22.95;12.35;;;11.20;62.80;;;;;;10250182;29;20487;-83
2022/03/15 09:06:37;;;;;;;23.77;13.10;;;12.00;61.80;;;;;;10174581;29;20035;-82
2022/03/15 09:17:41;;;;;;;36.22;20.13;;;12.50;60.00;;;;;;10190544;29;20111;-83
2022/03/15 09:22:42;;;;;;;42.78;20.85;;;12.90;59.90;;;;;;10248725;29;20066;-82
2022/03/15 09:27:43;;;;;;;27.75;16.00;;;13.30;59.50;;;;;;10247704;29;20470;-83
2022/03/15 09:32:44;;;;;;;30.20;17.13;;;13.50;58.00;;;;;;10231402;29;20047;-84
2022/03/15 09:37:46;;;;;;;32.72;16.00;;;13.80;57.80;;;;;;10227342;29;20057;-84
2022/03/15 09:43:14;;;;;;;25.83;14.60;;;13.90;57.00;;;;;;10224064;29;20082;-83
2022/03/15 09:48:19;;;;;;;35.47;17.73;;;14.00;56.70;;;;;;10247878;29;20019;-84
2022/03/15 09:53:20;;;;;;;30.83;16.25;;;14.00;57.10;;;;;;10248141;29;20110;-84
2022/03/15 09:58:22;;;;;;;28.55;14.25;;;14.20;56.90;;;;;;10234756;29;20039;-85
2022/03/15 10:03:24;;;;;;;25.35;15.00;;;14.40;56.80;;;;;;10236903;29;20039;-84
2022/03/15 10:08:25;;;;;;;33.08;16.67;;;14.60;56.50;;;;;;10230393;29;20031;-86
2022/03/15 10:13:25;;;;;;;42.70;21.05;;;14.40;56.10;;;;;;10246890;29;20023;-84
2022/03/15 10:18:27;;;;;;;55.63;28.60;;;14.40;56.40;;;;;;10229971;29;20039;-84
2022/03/15 10:23:30;;;;;;;47.47;21.73;;;14.40;55.30;;;;;;10246658;29;20123;-85
2022/03/15 10:28:31;;;;;;;36.70;17.98;;;14.60;56.90;;;;;;10237661;29;20024;-83
2022/03/15 10:33:34;;;;;;;22.73;13.57;;;14.70;56.80;;;;;;10216600;29;20060;-85
2022/03/15 10:38:48;;;;;;;21.60;12.63;;;14.80;56.90;;;;;;10237958;29;20168;-84
2022/03/15 10:43:54;;;;;;;21.88;12.73;;;14.80;56.50;;;;;;10239510;29;20063;-84
2022/03/15 10:49:03;;;;;;;28.30;15.75;;;15.00;55.80;;;;;;10229033;29;20032;-84
2022/03/15 10:54:06;;;;;;;25.90;15.25;;;15.20;56.90;;;;;;10241617;28;20035;-84
2022/03/15 10:59:09;;;;;;;40.20;24.33;;;15.30;56.50;;;;;;10245682;29;20039;-84
2022/03/15 11:04:11;;;;;;;28.98;16.33;;;15.50;55.80;;;;;;10245941;29;20023;-84
2022/03/15 11:09:27;;;;;;;25.83;14.70;;;15.80;55.40;;;;;;10232531;29;20024;-83
2022/03/15 11:14:39;;;;;;;22.13;13.40;;;15.90;54.10;;;;;;10245044;29;20034;-84
2022/03/15 11:19:58;;;;;;;29.35;16.65;;;15.60;54.20;;;;;;10245724;29;20338;-84
2022/03/15 11:25:17;;;;;;;27.75;14.95;;;15.60;55.20;;;;;;10228832;29;20027;-84
2022/03/15 11:30:19;;;;;;;27.58;14.18;;;15.80;55.90;;;;;;10212933;29;20043;-83
2022/03/15 11:35:22;;;;;;;24.40;15.23;;;16.00;55.10;;;;;;10231120;29;20070;-84
2022/03/15 11:40:24;;;;;;;21.63;11.63;;;16.30;54.90;;;;;;10242049;29;20031;-84
2022/03/15 11:45:31;;;;;;;16.42;9.98;;;16.40;54.50;;;;;;10252625;29;20034;-83
2022/03/15 11:50:44;;;;;;;21.67;11.80;;;16.50;55.30;;;;;;10252696;29;20618;-85
2022/03/15 11:55:53;;;;;;;17.60;11.88;;;16.60;54.40;;;;;;10247560;29;20454;-83
2022/03/15 12:00:54;;;;;;;16.58;9.95;;;16.50;54.40;;;;;;10253143;29;20090;-83
2022/03/15 12:05:57;;;;;;;18.55;9.60;;;16.50;54.90;;;;;;10246620;29;20031;-84
2022/03/15 12:11:03;;;;;;;16.95;10.05;;;16.50;54.20;;;;;;10246634;29;20024;-84
2022/03/15 12:16:15;;;;;;;15.93;10.00;;;16.70;54.40;;;;;;10251394;29;20094;-83
2022/03/15 12:21:17;;;;;;;19.90;11.23;;;16.60;53.90;;;;;;10241286;29;20031;-83
2022/03/15 12:26:30;;;;;;;42.30;32.72;;;16.40;53.60;;;;;;10250832;29;20497;-84
2022/03/15 12:31:43;;;;;;;82.78;36.25;;;16.40;54.40;;;;;;10211935;29;20032;-83
2022/03/15 12:36:49;;;;;;;21.65;12.90;;;16.40;54.00;;;;;;10196417;29;20087;-83
2022/03/15 12:42:09;;;;;;;19.13;11.32;;;16.20;54.20;;;;;;10223632;29;20102;-84
2022/03/15 12:47:11;;;;;;;22.95;11.85;;;16.30;53.60;;;;;;10250189;29;20027;-84
2022/03/15 12:52:14;;;;;;;20.70;14.40;;;16.10;54.60;;;;;;10244955;29;20043;-84
2022/03/15 12:57:15;;;;;;;40.42;25.05;;;16.20;53.70;;;;;;10243697;29;20046;-83
2022/03/15 13:02:16;;;;;;;30.42;18.88;;;16.30;54.00;;;;;;10249454;29;20035;-83
2022/03/15 13:07:28;;;;;;;23.08;13.48;;;16.20;54.50;;;;;;10249532;29;20039;-83
2022/03/15 13:12:33;;;;;;;25.38;15.25;;;16.10;53.70;;;;;;10249152;29;20023;-83
2022/03/15 13:17:34;;;;;;;20.92;11.88;;;16.10;54.10;;;;;;10249255;29;20179;-82
2022/03/15 13:22:35;;;;;;;20.00;12.25;;;16.10;54.30;;;;;;10249163;29;20030;-85
2022/03/15 13:27:40;;;;;;;22.45;12.27;;;16.10;54.90;;;;;;10240000;29;20057;-84
2022/03/15 13:32:41;;;;;;;21.95;12.57;;;16.00;54.80;;;;;;10196902;29;20038;-82
2022/03/15 13:37:41;;;;;;;20.48;12.52;;;15.90;55.20;;;;;;10208316;29;20047;-84
2022/03/15 13:42:43;;;;;;;22.38;14.07;;;15.80;54.60;;;;;;10236441;29;20123;-82
2022/03/15 13:47:53;;;;;;;29.30;15.55;;;15.60;54.80;;;;;;10229733;29;20031;-83
2022/03/15 13:53:02;;;;;;;28.00;17.33;;;15.60;55.20;;;;;;10247440;28;20503;-86
2022/03/15 13:58:03;;;;;;;27.52;14.82;;;15.40;55.70;;;;;;10236274;29;20051;-83
2022/03/15 14:03:07;;;;;;;22.80;12.75;;;15.40;55.40;;;;;;10208400;29;20488;-85
2022/03/15 14:08:09;;;;;;;20.98;12.73;;;15.30;55.20;;;;;;10213724;29;20039;-84
2022/03/15 14:13:20;;;;;;;22.30;13.10;;;15.10;55.50;;;;;;10244688;29;20088;-84
2022/03/15 14:18:25;;;;;;;33.97;18.02;;;15.10;55.90;;;;;;10215109;29;20043;-83
2022/03/15 14:23:27;;;;;;;57.95;27.50;;;15.10;56.40;;;;;;10206271;29;20480;-86
2022/03/15 14:28:28;;;;;;;31.77;17.08;;;15.00;56.50;;;;;;10229446;29;20059;-85
2022/03/15 14:33:29;;;;;;;26.42;15.98;;;15.00;56.70;;;;;;10192193;29;20059;-85
2022/03/15 14:38:41;;;;;;;29.50;15.63;;;15.00;56.30;;;;;;10241288;29;20047;-84
2022/03/15 14:43:43;;;;;;;36.35;19.50;;;14.90;56.00;;;;;;10229495;29;20031;-85
2022/03/15 14:48:46;;;;;;;30.15;15.50;;;14.80;56.20;;;;;;10246342;29;20033;-83
2022/03/15 14:53:47;;;;;;;30.35;18.58;;;14.70;56.80;;;;;;10246996;29;20483;-84
2022/03/15 14:59:21;;;;;;;27.02;15.45;;;14.60;57.00;;;;;;10227259;29;20046;-84
2022/03/15 15:04:23;;;;;;;31.58;16.65;;;14.50;56.60;;;;;;10209828;29;20508;-84
2022/03/15 15:09:24;;;;;;;28.63;14.93;;;14.40;57.50;;;;;;10194766;29;20027;-84
2022/03/15 15:20:27;;;;;;;26.40;16.42;;;14.20;58.30;;;;;;10214828;29;20151;-85
2022/03/15 15:26:15;;;;;;;52.65;39.83;;;14.20;58.10;;;;;;10206268;29;20082;-86
2022/03/15 15:31:59;;;;;;;27.10;16.08;;;14.10;56.30;;;;;;10252642;29;20387;-85
2022/03/15 15:37:02;;;;;;;67.75;57.85;;;14.00;57.30;;;;;;10229143;29;20460;-86
2022/03/15 15:48:19;;;;;;;100.70;51.70;;;13.80;57.40;;;;;;10152882;29;20060;-83
2022/03/15 16:11:03;;;;;;;26.05;15.00;;;12.80;62.40;;;;;;10251213;28;20034;-83
2022/03/15 16:27:12;;;;;;;29.23;16.45;;;12.00;62.80;;;;;;11849199;23;19926;-81
2022/03/15 16:32:21;;;;;;;31.48;16.73;;;11.80;63.70;;;;;;10247922;29;20038;-84
2022/03/15 16:43:23;;;;;;;53.40;28.02;;;11.40;64.10;;;;;;10249648;28;20090;-84
2022/03/15 17:00:27;;;;;;;67.47;37.77;;;10.90;65.80;;;;;;10200952;29;20054;-84
2022/03/15 17:05:43;;;;;;;81.40;42.67;;;11.00;64.60;;;;;;10197465;29;20432;-83
2022/03/15 17:10:56;;;;;;;;;;;11.00;65.60;;;;;;10207473;29;20039;-83
2022/03/15 17:15:57;;;;;;;116.60;60.73;;;10.90;65.60;;;;;;10200887;29;20437;-84
2022/03/15 17:27:00;;;;;;;159.83;76.00;;;10.70;66.10;;;;;;10443118;23;20050;-84
2022/03/15 17:32:15;;;;;;;147.07;68.57;;;10.70;66.50;;;;;;10270413;28;20111;-84
2022/03/15 17:37:20;;;;;;;108.83;52.90;;;10.50;67.10;;;;;;10237698;28;20050;-84
2022/03/15 17:42:23;;;;;;;109.00;55.07;;;10.30;67.70;;;;;;10240773;29;20042;-86
2022/03/15 17:47:24;;;;;;;104.03;51.17;;;10.30;67.70;;;;;;10228892;29;20361;-84
2022/03/15 17:52:25;;;;;;;112.00;54.00;;;10.00;68.30;;;;;;10251048;28;20051;-84
2022/03/15 17:57:26;;;;;;;105.43;52.73;;;9.80;69.00;;;;;;10264754;28;20039;-84
2022/03/15 18:02:31;;;;;;;92.07;45.53;;;9.60;69.60;;;;;;10275225;28;20034;-85
2022/03/15 18:07:37;;;;;;;101.43;50.83;;;9.40;70.50;;;;;;10261018;28;20078;-85
2022/03/15 18:12:38;;;;;;;97.17;51.00;;;9.30;70.50;;;;;;10283476;28;20398;-85
2022/03/15 18:17:44;;;;;;;101.20;51.33;;;9.20;70.40;;;;;;10276900;28;20249;-85
2022/03/15 18:22:50;;;;;;;90.83;44.60;;;9.40;69.90;;;;;;10266880;28;20611;-85
2022/03/15 18:27:50;;;;;;;106.90;53.03;;;9.60;69.20;;;;;;10280558;28;20050;-85
2022/03/15 18:32:52;;;;;;;112.70;55.40;;;9.80;68.60;;;;;;10285628;28;20031;-84
2022/03/15 18:37:55;;;;;;;119.57;59.70;;;9.80;68.40;;;;;;10268498;28;20038;-84
2022/03/15 18:43:08;;;;;;;97.03;48.73;;;9.80;69.10;;;;;;10277613;28;20410;-84
2022/03/15 18:48:17;;;;;;;92.77;44.80;;;9.70;68.90;;;;;;10260016;28;20026;-85
2022/03/15 18:53:22;;;;;;;99.13;50.90;;;9.50;68.90;;;;;;10285664;28;20038;-82
2022/03/15 18:58:23;;;;;;;133.87;66.17;;;9.20;70.00;;;;;;10282980;28;20723;-82
2022/03/15 19:03:25;;;;;;;126.93;65.73;;;8.90;70.90;;;;;;10260883;28;20337;-86
2022/03/15 19:08:39;;;;;;;110.43;55.50;;;8.80;71.20;;;;;;10279608;28;20044;-81
2022/03/15 19:13:44;;;;;;;86.63;42.87;;;8.70;71.10;;;;;;10269647;28;20581;-84
2022/03/15 19:18:50;;;;;;;74.87;37.50;;;8.70;71.50;;;;;;10275482;28;20039;-85
2022/03/15 19:23:51;;;;;;;109.05;51.50;;;8.60;71.70;;;;;;10262004;28;20031;-85
2022/03/15 19:28:51;;;;;;;134.23;67.83;;;8.60;72.30;;;;;;10275337;28;20517;-87
2022/03/15 19:33:58;;;;;;;139.00;67.80;;;8.40;72.50;;;;;;10276617;28;20038;-86
2022/03/15 19:38:58;;;;;;;133.67;65.57;;;8.40;72.50;;;;;;10277973;28;20098;-85
2022/03/15 19:43:59;;;;;;;112.63;55.80;;;8.50;72.70;;;;;;10278902;28;20434;-89
2022/03/15 19:49:04;;;;;;;101.20;49.63;;;8.40;72.40;;;;;;10256349;28;20058;-87
2022/03/15 19:54:05;;;;;;;112.00;53.77;;;8.40;72.90;;;;;;10292863;28;20042;-87
2022/03/15 19:59:12;;;;;;;105.13;51.43;;;8.30;73.00;;;;;;10291528;28;20038;-86
2022/03/15 20:04:22;;;;;;;98.93;46.53;;;8.30;72.80;;;;;;10284737;28;20064;-87
2022/03/15 20:09:25;;;;;;;91.57;44.33;;;8.20;72.90;;;;;;10290700;28;20034;-87
2022/03/15 20:14:28;;;;;;;99.07;47.77;;;8.20;73.30;;;;;;10290190;28;20053;-86
2022/03/15 20:19:29;;;;;;;105.77;51.00;;;8.00;74.20;;;;;;10285297;28;20039;-86
2022/03/15 20:24:30;;;;;;;121.77;58.03;;;7.80;74.70;;;;;;10271701;28;20043;-86
2022/03/15 20:29:36;;;;;;;118.60;56.80;;;7.60;75.20;;;;;;10271157;28;20035;-85
2022/03/15 20:34:36;;;;;;;99.03;48.33;;;7.60;75.10;;;;;;10283598;28;20109;-85
2022/03/15 20:40:08;;;;;;;94.33;45.23;;;7.50;75.40;;;;;;10279590;28;20112;-86
2022/03/15 20:45:09;;;;;;;89.53;43.43;;;7.50;75.70;;;;;;10289512;28;20042;-87
2022/03/15 20:50:10;;;;;;;84.60;40.43;;;7.50;75.50;;;;;;10251218;28;20085;-86
2022/03/15 20:56:08;;;;;;;85.40;40.00;;;7.50;75.50;;;;;;10248091;28;20130;-86
2022/03/15 21:01:38;;;;;;;87.77;42.90;;;7.50;76.20;;;;;;10253384;28;20049;-87
2022/03/15 21:06:40;;;;;;;115.40;48.90;;;7.50;75.80;;;;;;10260881;28;20043;-86
2022/03/15 21:17:48;;;;;;;173.57;76.77;;;7.50;75.70;;;;;;10282902;28;20050;-86
2022/03/15 21:23:19;;;;;;;215.97;93.13;;;7.40;75.80;;;;;;10286485;28;20054;-86
2022/03/15 21:28:21;;;;;;;148.37;70.07;;;7.50;75.60;;;;;;10269043;28;20051;-86
2022/03/15 21:33:22;;;;;;;145.10;66.70;;;7.60;75.80;;;;;;10280513;28;20022;-86
2022/03/15 21:38:27;;;;;;;137.23;63.67;;;7.60;75.90;;;;;;10283952;28;20043;-87
2022/03/15 21:43:28;;;;;;;123.13;60.43;;;7.60;76.20;;;;;;10288193;28;20490;-86
2022/03/15 21:48:29;;;;;;;107.73;53.30;;;7.70;76.10;;;;;;10279872;28;20039;-86
2022/03/15 21:53:30;;;;;;;102.87;48.47;;;7.70;75.70;;;;;;10281006;28;20491;-87
2022/03/15 21:58:33;;;;;;;109.40;51.47;;;7.70;75.60;;;;;;10250944;28;20590;-86
2022/03/15 22:03:34;;;;;;;98.10;46.03;;;7.80;75.50;;;;;;10269415;28;20041;-86
2022/03/15 22:08:35;;;;;;;92.13;46.20;;;7.80;75.50;;;;;;10288054;28;20053;-87
2022/03/15 22:13:39;;;;;;;93.13;45.40;;;7.80;75.00;;;;;;10286453;28;20395;-86
2022/03/15 22:18:39;;;;;;;98.47;45.83;;;7.80;74.70;;;;;;10280531;28;20035;-86
2022/03/15 22:23:40;;;;;;;93.67;43.93;;;7.90;74.60;;;;;;10288142;28;20348;-87
2022/03/15 22:28:41;;;;;;;102.87;46.73;;;8.00;74.60;;;;;;10286577;28;20126;-86
2022/03/15 23:26:15;;;;;;;93.47;46.20;;;7.70;76.40;;;;;;10292504;28;20129;-86
2022/03/15 23:31:16;;;;;;;103.37;50.03;;;7.70;76.20;;;;;;10292964;28;20465;-87
2022/03/15 23:36:17;;;;;;;97.67;50.90;;;7.70;76.70;;;;;;10292979;28;20050;-86
2022/03/15 23:41:17;;;;;;;95.83;49.13;;;7.70;77.00;;;;;;10275472;28;20137;-86
2022/03/15 23:46:18;;;;;;;120.20;55.83;;;7.60;76.60;;;;;;10292941;28;20117;-87
2022/03/15 23:51:19;;;;;;;118.97;53.90;;;7.70;76.70;;;;;;10292668;28;20391;-87
2022/03/15 23:56:19;;;;;;;99.13;50.37;;;7.70;76.60;;;;;;10289809;28;20403;-86
